Terminal Aerodrome Forecast
Issued by NWS

Home | Current Version | Previous Version | Text Only | Print | Product List | Glossary On
Versions: 1 2 3 4 5 6 7 8 9 10 11 12 13 14 15 16 17 18 19
000
FTUS42 KGSP 212337
TAFAND
TAF
KAND 212337Z 2200/2224 16003KT P6SM SCT045
     FM220400 VRB02KT P6SM SCT040 BKN120
     FM221000 VRB02KT 3SM BR BKN012
     FM221400 17005KT P6SM VCSH BKN025 PROB30 2218/2224 4SM -TSRA
      OVC015CB=

USA.gov is the U.S. government's official web portal to all federal, state and local government web resources and services.